Time;durP1;ratioP1;P1;durP2;ratioP2;P2;SDS_P1;SDS_P2;PMS_P1;PMS_P2;Temp;Humidity;BMP_temperature;BMP_pressure;BME280_temperature;BME280_humidity;BME280_pressure;Samples;Min_cycle;Max_cycle;Signal;HPM_P1;HPM_P2
2022/04/24 00:01:31;;;;;;;;;;;9.00;99.90;;;8.76;100.00;95281.59;5012019;28;19925;-57
2022/04/24 00:03:57;;;;;;;;;;;9.20;99.90;;;8.84;100.00;95280.25;5013045;28;19976;-57
2022/04/24 00:06:23;;;;;;;;;;;9.30;99.90;;;8.86;100.00;95281.84;5009904;28;20379;-57
2022/04/24 00:08:49;;;;;;;;;;;9.30;99.90;;;8.88;100.00;95287.88;5014751;28;19932;-57
2022/04/24 00:11:16;;;;;;;;;;;9.40;99.90;;;8.90;100.00;95283.34;4997136;28;19921;-57
2022/04/24 00:13:42;;;;;;;;;;;9.40;99.90;;;8.92;100.00;95280.63;5015303;28;19925;-57
2022/04/24 00:16:08;;;;;;;;;;;9.40;99.90;;;8.93;100.00;95282.28;5016491;28;19921;-57
2022/04/24 00:18:35;;;;;;;;;;;9.40;99.90;;;8.87;100.00;95278.28;4994003;28;20269;-57
2022/04/24 00:21:01;;;;;;;;;;;9.40;99.90;;;8.91;100.00;95282.38;5012247;28;19921;-57
2022/04/24 00:23:27;;;;;;;;;;;9.40;99.90;;;8.91;100.00;95268.41;5010295;28;20304;-57
2022/04/24 00:25:53;;;;;;;;;;;9.40;99.90;;;8.89;100.00;95259.78;5015488;28;20327;-57
2022/04/24 00:28:19;;;;;;;;;;;9.40;99.90;;;8.84;100.00;95262.69;5012427;28;19921;-57
2022/04/24 00:30:45;;;;;;;;;;;9.30;99.90;;;8.79;100.00;95263.00;5012317;28;19975;-57
2022/04/24 00:33:10;;;;;;;;;;;9.30;99.90;;;8.77;100.00;95250.88;5010268;28;19957;-57
2022/04/24 00:35:36;;;;;;;;;;;9.30;99.90;;;8.73;100.00;95249.41;5014787;28;19921;-57
2022/04/24 00:38:01;;;;;;;;;;;9.20;99.90;;;8.69;100.00;95250.56;5016357;28;19999;-57
2022/04/24 00:40:27;;;;;;;;;;;9.20;99.90;;;8.69;100.00;95247.94;5020036;28;19921;-57
2022/04/24 00:42:53;;;;;;;;;;;9.20;99.90;;;8.69;100.00;95243.50;5014759;28;19928;-57
2022/04/24 00:45:18;;;;;;;;;;;9.20;99.90;;;8.72;100.00;95243.31;5016814;28;20032;-57
2022/04/24 00:47:44;;;;;;;;;;;9.20;99.90;;;8.73;100.00;95233.66;5014223;28;20393;-57
2022/04/24 00:50:10;;;;;;;;;;;9.20;99.90;;;8.74;100.00;95237.94;5019446;28;20308;-58
2022/04/24 00:52:37;;;;;;;;;;;9.20;99.90;;;8.72;100.00;95238.06;5017078;28;19925;-57
2022/04/24 00:55:03;;;;;;;;;;;9.20;99.90;;;8.69;100.00;95246.13;5014653;28;19921;-57
2022/04/24 00:57:29;;;;;;;;;;;9.20;99.90;;;8.67;100.00;95234.03;5019406;28;20019;-57
2022/04/24 00:59:54;;;;;;;;;;;9.20;99.90;;;8.69;100.00;95238.25;5021207;28;20063;-57
2022/04/24 01:02:20;;;;;;;;;;;9.20;99.90;;;8.64;100.00;95223.72;5018335;28;19921;-57
2022/04/24 01:04:46;;;;;;;;;;;9.20;99.90;;;8.70;100.00;95220.69;5000792;28;19925;-57
2022/04/24 01:07:11;;;;;;;;;;;9.20;99.90;;;8.74;100.00;95224.81;5017718;28;19929;-58
2022/04/24 01:09:37;;;;;;;;;;;9.20;99.90;;;8.73;100.00;95225.75;5020403;28;19971;-58
2022/04/24 01:12:04;;;;;;;;;;;9.20;99.90;;;8.71;100.00;95222.41;5019086;28;19948;-58
2022/04/24 01:14:33;;;;;;;;;;;9.20;99.90;;;8.70;100.00;95211.03;5019984;28;19917;-58
2022/04/24 01:17:00;;;;;;;;;;;9.20;99.90;;;8.70;100.00;95213.66;5017018;28;20392;-57
2022/04/24 01:19:26;;;;;;;;;;;9.20;99.90;;;8.71;100.00;95225.84;5020375;28;19917;-57
2022/04/24 01:21:52;;;;;;;;;;;9.20;99.90;;;8.72;100.00;95230.19;5017983;28;19917;-57
2022/04/24 01:24:20;;;;;;;;;;;9.20;99.90;;;8.73;100.00;95231.03;5016882;28;19925;-57
2022/04/24 01:26:46;;;;;;;;;;;9.20;99.90;;;8.75;100.00;95232.59;5017674;28;20396;-57
2022/04/24 01:29:11;;;;;;;;;;;9.20;99.90;;;8.76;100.00;95229.03;5019394;28;19925;-57
2022/04/24 01:31:38;;;;;;;;;;;9.20;99.90;;;8.76;100.00;95225.56;5019253;28;20377;-57
2022/04/24 01:34:04;;;;;;;;;;;9.30;99.90;;;8.78;100.00;95234.19;5018797;28;20478;-57
2022/04/24 01:36:30;;;;;;;;;;;9.30;99.90;;;8.79;100.00;95230.59;5019721;28;20672;-57
2022/04/24 01:38:55;;;;;;;;;;;9.20;99.90;;;8.76;100.00;95242.19;5000868;28;19960;-57
2022/04/24 01:41:21;;;;;;;;;;;9.20;99.90;;;8.76;100.00;95244.81;5018654;28;19925;-57
2022/04/24 01:43:47;;;;;;;;;;;9.30;99.90;;;8.77;100.00;95228.09;5015254;28;19925;-57
2022/04/24 01:46:13;;;;;;;;;;;9.20;99.90;;;8.76;100.00;95236.91;5017172;28;20451;-57
2022/04/24 01:48:39;;;;;;;;;;;9.30;99.90;;;8.76;100.00;95243.97;5018793;28;19917;-57
2022/04/24 01:51:08;;;;;;;;;;;9.20;99.90;;;8.75;100.00;95242.28;5013698;28;20174;-57
2022/04/24 01:53:35;;;;;;;;;;;9.30;99.90;;;8.75;100.00;95242.28;5016722;28;19917;-58
2022/04/24 01:56:03;;;;;;;;;;;9.30;99.90;;;8.74;100.00;95246.69;5013475;28;19992;-57
2022/04/24 01:58:29;;;;;;;;;;;9.20;99.90;;;8.77;100.00;95251.75;5008714;28;19925;-57
2022/04/24 02:00:54;;;;;;;;;;;9.30;99.90;;;8.77;100.00;95271.91;5011998;28;19968;-58
2022/04/24 02:03:22;;;;;;;;;;;9.30;99.90;;;8.83;100.00;95287.31;5013452;28;19960;-57
2022/04/24 02:05:48;;;;;;;;;;;9.30;99.90;;;8.85;100.00;95303.00;5016526;28;19925;-57
2022/04/24 02:08:14;;;;;;;;;;;9.40;99.90;;;8.88;100.00;95298.38;5015848;28;19921;-58
2022/04/24 02:10:40;;;;;;;;;;;9.40;99.90;;;8.93;100.00;95298.06;5016058;28;20746;-58
2022/04/24 02:13:06;;;;;;;;;;;9.40;99.90;;;8.96;100.00;95293.47;5013015;28;19982;-58
2022/04/24 02:15:31;;;;;;;;;;;9.40;99.90;;;8.97;100.00;95292.53;5017430;28;19948;-58
2022/04/24 02:17:57;;;;;;;;;;;9.50;99.90;;;9.01;100.00;95289.69;5013336;28;19929;-58
2022/04/24 02:20:23;;;;;;;;;;;9.50;99.90;;;9.02;100.00;95291.38;5013272;28;20035;-58
2022/04/24 02:22:50;;;;;;;;;;;9.50;99.90;;;9.00;100.00;95309.03;5013841;28;19960;-58
2022/04/24 02:25:17;;;;;;;;;;;9.50;99.90;;;8.90;100.00;95290.38;5012372;28;20345;-57
2022/04/24 02:27:43;;;;;;;;;;;9.50;99.90;;;8.96;100.00;95303.13;5012573;28;19917;-58
2022/04/24 02:30:09;;;;;;;;;;;9.50;99.90;;;8.98;100.00;95314.41;5012631;28;19921;-58
2022/04/24 02:32:34;;;;;;;;;;;9.50;99.90;;;8.96;100.00;95303.97;5015489;28;20373;-58
2022/04/24 02:35:01;;;;;;;;;;;9.50;99.90;;;8.98;100.00;95309.13;5009410;28;20556;-57
2022/04/24 02:37:27;;;;;;;;;;;9.40;99.90;;;8.95;100.00;95312.81;5009378;28;20393;-58
2022/04/24 02:39:53;;;;;;;;;;;9.40;99.90;;;8.92;100.00;95318.25;4995379;28;19968;-58
2022/04/24 02:42:19;;;;;;;;;;;9.40;99.90;;;8.87;100.00;95330.84;5013627;28;19948;-58
2022/04/24 02:44:45;;;;;;;;;;;9.40;99.90;;;8.85;100.00;95335.38;5007326;28;20364;-57
2022/04/24 02:47:11;;;;;;;;;;;9.40;99.90;;;8.82;100.00;95332.09;5005656;28;19948;-58
2022/04/24 02:49:36;;;;;;;;;;;9.30;99.90;;;8.78;100.00;95334.06;4993383;28;19921;-58
2022/04/24 02:52:02;;;;;;;;;;;9.30;99.90;;;8.73;100.00;95320.34;4993347;28;19931;-57
2022/04/24 02:54:28;;;;;;;;;;;9.20;99.90;;;8.73;100.00;95317.72;5012587;28;20021;-57
2022/04/24 02:56:53;;;;;;;;;;;9.20;99.90;;;8.71;100.00;95320.44;5010216;28;20361;-57
2022/04/24 02:59:19;;;;;;;;;;;9.20;99.90;;;8.68;100.00;95310.13;5007624;28;19921;-58
2022/04/24 03:01:45;;;;;;;;;;;9.20;99.90;;;8.67;100.00;95315.47;5005662;28;20503;-58
2022/04/24 03:04:11;;;;;;;;;;;9.20;99.90;;;8.64;100.00;95313.06;5014494;28;19921;-58
2022/04/24 03:06:37;;;;;;;;;;;9.10;99.90;;;8.53;100.00;95300.59;5014755;28;19931;-58
2022/04/24 03:09:04;;;;;;;;;;;9.10;99.90;;;8.55;100.00;95311.84;5009165;28;20128;-58
2022/04/24 03:11:30;;;;;;;;;;;9.10;99.90;;;8.49;100.00;95310.44;5012257;28;19949;-58
2022/04/24 03:13:55;;;;;;;;;;;9.00;99.90;;;8.48;100.00;95314.00;5013672;28;20370;-57
2022/04/24 03:16:21;;;;;;;;;;;9.00;99.90;;;8.46;100.00;95312.41;5015936;28;19967;-57
2022/04/24 03:18:46;;;;;;;;;;;8.90;99.90;;;8.43;100.00;95304.72;5010397;28;20024;-58
2022/04/24 03:21:12;;;;;;;;;;;8.90;99.90;;;8.39;100.00;95310.13;5013905;28;23421;-57
2022/04/24 03:23:38;;;;;;;;;;;8.90;99.90;;;8.31;100.00;95301.88;5011009;28;20018;-58
2022/04/24 03:26:03;;;;;;;;;;;8.80;99.90;;;8.09;100.00;95276.09;5012768;28;20416;-57
2022/04/24 03:28:29;;;;;;;;;;;8.80;99.90;;;8.26;100.00;95306.56;5009975;28;19925;-57
2022/04/24 03:30:54;;;;;;;;;;;8.70;99.90;;;8.22;100.00;95307.72;5010869;28;19925;-57
2022/04/24 03:33:20;;;;;;;;;;;8.70;99.90;;;8.13;100.00;95303.84;5014882;28;19968;-57
2022/04/24 03:35:46;;;;;;;;;;;8.70;99.90;;;8.17;100.00;95321.09;5014493;28;19921;-57
2022/04/24 03:38:12;;;;;;;;;;;8.70;99.90;;;8.19;100.00;95316.59;4981436;28;20334;-58
2022/04/24 03:40:37;;;;;;;;;;;8.70;99.90;;;8.16;100.00;95308.91;5008973;28;20360;-57
2022/04/24 03:43:03;;;;;;;;;;;8.70;99.90;;;8.29;100.00;95326.53;5010615;28;19925;-58
2022/04/24 03:45:28;;;;;;;;;;;8.80;99.90;;;8.33;100.00;95330.69;5001655;28;19933;-58
2022/04/24 03:47:54;;;;;;;;;;;8.80;99.90;;;8.38;100.00;95336.47;5005495;28;19932;-57
2022/04/24 03:50:20;;;;;;;;;;;8.80;99.90;;;8.40;100.00;95337.25;5012483;28;20347;-57
2022/04/24 03:52:46;;;;;;;;;;;8.90;99.90;;;8.44;100.00;95337.94;5010661;28;19960;-57
2022/04/24 03:55:11;;;;;;;;;;;8.90;99.90;;;8.39;100.00;95330.28;5014927;28;20290;-58
2022/04/24 03:57:37;;;;;;;;;;;8.90;99.90;;;8.45;100.00;95335.19;5012559;28;20008;-58
2022/04/24 04:00:05;;;;;;;;;;;9.00;99.90;;;8.46;100.00;95344.78;5010895;28;20394;-57
2022/04/24 04:02:31;;;;;;;;;;;8.90;99.90;;;8.47;100.00;95341.22;4998173;28;19917;-58
2022/04/24 04:04:57;;;;;;;;;;;9.00;99.90;;;8.48;100.00;95342.91;5013170;28;19929;-58
2022/04/24 04:07:23;;;;;;;;;;;9.00;99.90;;;8.49;100.00;95339.34;5007361;28;20794;-57
2022/04/24 04:09:49;;;;;;;;;;;9.00;99.90;;;8.51;100.00;95339.25;5013510;28;19921;-57
2022/04/24 04:12:14;;;;;;;;;;;9.00;99.90;;;8.52;100.00;95349.63;5012198;28;19921;-58
2022/04/24 04:14:40;;;;;;;;;;;9.00;99.90;;;8.55;100.00;95349.47;5008992;28;19928;-58
2022/04/24 04:17:06;;;;;;;;;;;9.00;99.90;;;8.57;100.00;95344.13;5006769;28;19967;-58
2022/04/24 04:19:32;;;;;;;;;;;9.10;99.90;;;8.59;100.00;95352.75;5015824;28;20197;-57
2022/04/24 04:21:58;;;;;;;;;;;9.10;99.90;;;8.60;100.00;95355.28;5010645;28;20308;-58
2022/04/24 04:24:23;;;;;;;;;;;9.10;99.90;;;8.62;100.00;95346.47;5008985;28;19921;-58
2022/04/24 04:26:49;;;;;;;;;;;9.10;99.90;;;8.62;100.00;95352.56;5013302;28;19917;-57
2022/04/24 04:29:15;;;;;;;;;;;9.10;99.90;;;8.64;100.00;95360.34;5012770;28;20385;-57
2022/04/24 04:31:40;;;;;;;;;;;9.10;99.90;;;8.64;100.00;95362.97;5013312;28;19943;-58
2022/04/24 04:34:06;;;;;;;;;;;9.10;99.90;;;8.60;100.00;95362.31;5010962;28;19921;-58
2022/04/24 04:36:31;;;;;;;;;;;9.10;99.90;;;8.63;100.00;95383.13;5014032;28;19956;-58
2022/04/24 04:38:57;;;;;;;;;;;9.20;99.90;;;8.64;100.00;95397.13;5013993;28;19929;-58
2022/04/24 04:41:23;;;;;;;;;;;9.20;99.90;;;8.60;100.00;95407.00;5011289;28;20388;-58
2022/04/24 04:43:48;;;;;;;;;;;9.20;99.90;;;8.67;100.00;95412.69;5012067;28;20011;-58
2022/04/24 04:46:14;;;;;;;;;;;9.20;99.90;;;8.49;100.00;95414.66;5011324;28;19924;-57
2022/04/24 04:48:39;;;;;;;;;;;9.10;99.90;;;8.30;100.00;95407.03;5011688;28;20263;-57
2022/04/24 04:51:05;;;;;;;;;;;8.90;99.90;;;8.13;100.00;95405.38;5005313;28;20402;-58
2022/04/24 04:53:31;;;;;;;;;;;8.70;99.90;;;7.91;100.00;95387.44;5012430;28;20120;-58
2022/04/24 04:55:57;;;;;;;;;;;8.60;99.90;;;7.76;100.00;95400.50;5014693;28;19931;-58
2022/04/24 04:58:22;;;;;;;;;;;8.40;99.90;;;7.68;100.00;95413.25;5012657;28;19948;-57
2022/04/24 05:00:48;;;;;;;;;;;8.30;99.90;;;7.58;100.00;95401.56;5012348;28;20440;-58
2022/04/24 05:03:14;;;;;;;;;;;8.20;99.90;;;7.43;100.00;95412.00;5012951;28;20047;-57
2022/04/24 05:05:39;;;;;;;;;;;8.10;99.90;;;7.35;100.00;95408.94;5011358;28;19967;-58
2022/04/24 05:08:05;;;;;;;;;;;7.90;99.90;;;7.24;100.00;95408.72;5013829;28;19922;-58
2022/04/24 05:10:31;;;;;;;;;;;7.90;99.90;;;7.09;100.00;95402.56;5009008;28;19926;-58
2022/04/24 05:12:57;;;;;;;;;;;7.80;99.90;;;7.05;100.00;95399.25;5010995;28;19926;-60
2022/04/24 05:15:22;;;;;;;;;;;7.70;99.90;;;6.97;100.00;95418.94;5012241;28;19921;-57
2022/04/24 05:17:48;;;;;;;;;;;7.60;99.90;;;6.94;100.00;95409.44;4996588;28;20040;-57
2022/04/24 05:20:14;;;;;;;;;;;7.60;99.90;;;6.93;100.00;95425.25;5014126;28;20399;-57
2022/04/24 05:22:41;;;;;;;;;;;7.50;99.90;;;6.85;100.00;95429.13;5009172;28;19921;-56
2022/04/24 05:25:09;;;;;;;;;;;7.50;99.90;;;6.78;100.00;95432.16;5013937;28;19980;-57
2022/04/24 05:27:36;;;;;;;;;;;7.40;99.90;;;6.77;100.00;95440.97;5014478;28;20288;-57
2022/04/24 05:30:07;;;;;;;;;;;7.40;99.90;;;6.74;100.00;95443.75;5015268;28;19923;-56
2022/04/24 05:32:46;;;;;;;;;;;7.30;99.90;;;6.66;100.00;95459.88;5008139;28;19917;-55
2022/04/24 05:35:12;;;;;;;;;;;7.30;99.90;;;6.68;100.00;95450.16;5015102;28;19923;-57
2022/04/24 05:37:40;;;;;;;;;;;7.30;99.90;;;6.61;100.00;95457.47;5016655;28;19929;-55
2022/04/24 05:40:06;;;;;;;;;;;7.30;99.90;;;6.53;100.00;95454.41;5017642;28;19921;-57
2022/04/24 05:42:32;;;;;;;;;;;7.20;99.90;;;6.42;100.00;95454.13;5013995;28;19971;-57
2022/04/24 05:44:59;;;;;;;;;;;7.10;99.90;;;6.46;100.00;95473.97;5014946;28;19998;-57
2022/04/24 05:47:25;;;;;;;;;;;7.10;99.90;;;6.40;100.00;95469.06;5015830;28;19921;-57
2022/04/24 05:49:50;;;;;;;;;;;7.10;99.90;;;6.38;100.00;95465.69;5016943;28;20462;-57
2022/04/24 05:52:16;;;;;;;;;;;7.00;99.90;;;6.38;100.00;95470.94;5014030;28;19967;-57
2022/04/24 05:54:42;;;;;;;;;;;7.00;99.90;;;6.38;100.00;95477.00;5011790;28;19921;-57
2022/04/24 05:57:07;;;;;;;;;;;7.00;99.90;;;6.36;100.00;95475.41;5016616;28;19929;-58
2022/04/24 05:59:33;;;;;;;;;;;7.00;99.90;;;6.38;100.00;95470.94;5013589;28;20341;-58
2022/04/24 06:01:58;;;;;;;;;;;7.00;99.90;;;6.36;100.00;95467.53;5011804;28;19921;-58
2022/04/24 06:04:24;;;;;;;;;;;7.00;99.90;;;6.35;100.00;95466.66;5009938;28;19928;-57
2022/04/24 06:06:50;;;;;;;;;;;7.00;99.90;;;6.35;100.00;95464.06;5011610;28;20452;-57
2022/04/24 06:09:18;;;;;;;;;;;7.00;99.90;;;6.23;100.00;95442.00;5014758;28;20078;-57
2022/04/24 06:11:44;;;;;;;;;;;7.00;99.90;;;6.34;100.00;95466.78;5013724;28;20022;-58
2022/04/24 06:14:09;;;;;;;;;;;7.00;99.90;;;6.36;100.00;95464.94;5016816;28;19929;-58
2022/04/24 06:16:36;;;;;;;;;;;7.00;99.90;;;6.36;100.00;95478.00;5014583;28;19964;-57
2022/04/24 06:19:02;;;;;;;;;;;7.00;99.90;;;6.38;100.00;95466.53;5014324;28;20282;-57
2022/04/24 06:21:27;;;;;;;;;;;7.00;99.90;;;6.38;100.00;95478.78;5012787;28;19921;-57
2022/04/24 06:23:53;;;;;;;;;;;7.00;99.90;;;6.37;100.00;95477.94;5012872;28;20312;-57
2022/04/24 06:26:18;;;;;;;;;;;7.00;99.90;;;6.38;100.00;95470.94;5013540;28;20023;-58
2022/04/24 06:28:44;;;;;;;;;;;7.00;99.90;;;6.35;100.00;95473.69;5013515;28;19960;-57
2022/04/24 06:31:10;;;;;;;;;;;7.00;99.90;;;6.36;100.00;95485.88;5007301;28;19921;-58
2022/04/24 06:33:35;;;;;;;;;;;7.00;99.90;;;6.41;100.00;95471.63;5011162;28;20446;-58
2022/04/24 06:36:02;;;;;;;;;;;7.00;99.90;;;6.40;100.00;95483.00;4998269;28;19960;-58
2022/04/24 06:38:28;;;;;;;;;;;7.10;99.90;;;6.39;100.00;95485.69;5015306;28;19929;-58
2022/04/24 06:40:54;;;;;;;;;;;7.00;99.90;;;6.35;100.00;95482.38;5011830;28;20395;-58
2022/04/24 06:43:19;;;;;;;;;;;7.00;99.90;;;6.35;100.00;95468.44;5015898;28;19917;-58
2022/04/24 06:45:45;;;;;;;;;;;7.00;99.90;;;6.30;100.00;95464.31;5010664;28;19921;-58
2022/04/24 06:48:12;;;;;;;;;;;7.10;99.90;;;6.47;100.00;95480.91;5015848;28;19924;-58
2022/04/24 06:50:41;;;;;;;;;;;7.10;99.90;;;6.55;100.00;95480.50;5013061;28;19957;-58
2022/04/24 06:53:16;;;;;;;;;;;7.10;99.90;;;6.58;100.00;95473.34;5011393;28;19928;-57
2022/04/24 06:55:42;;;;;;;;;;;7.20;99.90;;;6.60;100.00;95468.03;5010779;28;19921;-58
2022/04/24 06:58:09;;;;;;;;;;;7.30;99.90;;;6.63;100.00;95481.81;5015305;28;19929;-58
2022/04/24 07:00:37;;;;;;;;;;;7.30;99.90;;;6.67;100.00;95477.25;5014141;28;19922;-59
2022/04/24 07:03:16;;;;;;;;;;;7.30;99.90;;;6.72;100.00;95479.66;5014040;28;20458;-57
2022/04/24 07:05:45;;;;;;;;;;;7.30;99.90;;;6.73;100.00;95474.34;5010152;28;20197;-58
2022/04/24 07:08:10;;;;;;;;;;;7.30;99.90;;;6.76;100.00;95483.81;5014042;28;20020;-58
2022/04/24 07:10:36;;;;;;;;;;;7.40;99.90;;;6.76;100.00;95482.03;5014035;28;19924;-58
2022/04/24 07:13:03;;;;;;;;;;;7.40;99.90;;;6.83;100.00;95487.78;5016017;28;19929;-58
2022/04/24 07:15:35;;;;;;;;;;;7.40;99.90;;;6.80;100.00;95495.81;5012884;28;19924;-58
2022/04/24 07:18:01;;;;;;;;;;;7.40;99.90;;;6.80;100.00;95493.19;5014090;28;19936;-57
2022/04/24 07:20:29;;;;;;;;;;;7.40;99.90;;;6.84;100.00;95503.44;5013814;28;19953;-58
2022/04/24 07:23:00;;;;;;;;;;;7.50;99.90;;;6.86;100.00;95504.19;5015517;28;23025;-58
2022/04/24 07:25:27;;;;;;;;;;;7.50;99.90;;;6.85;100.00;95506.91;5011328;28;19925;-57
2022/04/24 07:27:53;;;;;;;;;;;7.50;99.90;;;6.88;100.00;95522.47;5014124;28;20432;-58
2022/04/24 07:30:20;;;;;;;;;;;7.50;99.90;;;6.92;100.00;95521.38;5016469;28;19921;-58
2022/04/24 07:32:50;;;;;;;;;;;7.50;99.90;;;6.87;100.00;95531.25;5012964;28;19978;-58
2022/04/24 07:35:18;;;;;;;;;;;7.50;99.90;;;6.91;100.00;95531.91;5012622;28;19925;-58
2022/04/24 07:37:44;;;;;;;;;;;7.50;99.90;;;6.89;100.00;95526.75;5013674;28;19929;-57
2022/04/24 07:40:15;;;;;;;;;;;7.50;99.90;;;6.92;100.00;95529.22;5013732;28;19925;-58
2022/04/24 07:42:44;;;;;;;;;;;7.50;99.90;;;6.93;100.00;95538.78;5011156;28;19956;-57
2022/04/24 07:45:11;;;;;;;;;;;7.50;99.90;;;6.95;100.00;95534.31;5007319;28;19924;-57
2022/04/24 07:47:36;;;;;;;;;;;7.60;99.90;;;6.95;100.00;95536.09;5010573;28;20312;-57
2022/04/24 07:50:02;;;;;;;;;;;7.60;99.90;;;6.97;100.00;95532.47;5013636;28;19924;-57
2022/04/24 07:52:28;;;;;;;;;;;7.60;99.90;;;7.00;100.00;95532.31;5013903;28;20035;-58
2022/04/24 07:54:53;;;;;;;;;;;7.60;99.90;;;7.04;100.00;95535.63;5012877;28;19921;-58
2022/04/24 07:57:19;;;;;;;;;;;7.70;99.90;;;7.11;100.00;95525.66;5013214;28;19921;-57
2022/04/24 07:59:44;;;;;;;;;;;7.70;99.90;;;7.14;100.00;95531.59;5013597;28;20498;-58
2022/04/24 08:02:10;;;;;;;;;;;7.70;99.90;;;7.16;100.00;95527.09;5013253;28;19963;-57
2022/04/24 08:04:36;;;;;;;;;;;7.80;99.90;;;7.15;100.00;95525.41;5009791;28;19917;-58
2022/04/24 08:07:02;;;;;;;;;;;7.80;99.90;;;7.18;100.00;95534.88;5011866;28;20116;-58
2022/04/24 08:09:28;;;;;;;;;;;7.80;99.90;;;7.16;100.00;95536.72;5014206;28;20059;-58
2022/04/24 08:11:54;;;;;;;;;;;7.80;99.90;;;7.18;100.00;95532.28;5007930;28;19917;-58
2022/04/24 08:14:20;;;;;;;;;;;7.80;99.90;;;7.19;100.00;95524.28;5015428;28;19961;-57
2022/04/24 08:16:46;;;;;;;;;;;7.80;99.90;;;7.21;100.00;95521.59;5012111;28;19983;-57
2022/04/24 08:19:12;;;;;;;;;;;7.80;99.90;;;7.14;100.00;95517.59;5015393;28;20268;-57
2022/04/24 08:21:37;;;;;;;;;;;7.80;99.90;;;7.22;100.00;95521.53;5006243;28;19948;-57
2022/04/24 08:24:03;;;;;;;;;;;7.90;99.90;;;7.31;100.00;95541.16;5010559;28;19917;-58
2022/04/24 08:26:29;;;;;;;;;;;7.90;99.90;;;7.37;100.00;95535.56;5013184;28;19944;-58
2022/04/24 08:28:55;;;;;;;;;;;8.00;99.90;;;7.41;100.00;95544.97;5011055;28;21056;-58
2022/04/24 08:31:20;;;;;;;;;;;8.00;99.90;;;7.43;100.00;95553.63;5012946;28;19928;-57
2022/04/24 08:33:46;;;;;;;;;;;8.10;99.90;;;7.49;100.00;95559.47;5010756;28;19987;-57
2022/04/24 08:36:12;;;;;;;;;;;8.10;99.90;;;7.49;100.00;95562.91;5013746;28;20289;-58
2022/04/24 08:38:37;;;;;;;;;;;8.10;99.90;;;7.45;100.00;95548.28;5010545;28;19929;-58
2022/04/24 08:41:03;;;;;;;;;;;8.10;99.90;;;7.61;100.00;95569.28;5013439;28;19992;-58
2022/04/24 08:43:28;;;;;;;;;;;8.20;99.90;;;7.65;100.00;95576.06;5012981;28;19917;-57
2022/04/24 08:45:54;;;;;;;;;;;8.30;99.90;;;7.72;100.00;95573.94;4997516;28;19948;-58
2022/04/24 08:48:20;;;;;;;;;;;8.30;99.90;;;7.80;100.00;95571.72;5013709;28;19939;-58
2022/04/24 08:50:46;;;;;;;;;;;8.40;99.90;;;7.89;100.00;95578.25;5010725;28;20020;-58
2022/04/24 08:53:12;;;;;;;;;;;8.50;99.90;;;7.83;100.00;95553.22;5009484;28;19959;-58
2022/04/24 08:55:38;;;;;;;;;;;8.50;99.90;;;8.05;100.00;95576.47;4986813;28;20020;-58
2022/04/24 08:58:04;;;;;;;;;;;8.60;99.90;;;8.08;100.00;95573.69;5013626;28;20468;-57
2022/04/24 09:00:30;;;;;;;;;;;8.70;99.90;;;8.22;100.00;95578.16;5016251;28;19924;-58
2022/04/24 09:02:59;;;;;;;;;;;8.80;99.90;;;8.31;100.00;95577.63;5014963;28;19979;-57
2022/04/24 09:05:26;;;;;;;;;;;8.80;99.90;;;8.39;100.00;95585.06;5016134;28;19930;-58
2022/04/24 09:07:53;;;;;;;;;;;8.90;99.90;;;8.47;100.00;95585.53;5016949;28;20428;-58
2022/04/24 09:10:19;;;;;;;;;;;9.00;99.90;;;8.59;100.00;95587.41;4997967;28;19921;-57
2022/04/24 09:12:45;;;;;;;;;;;9.10;99.90;;;8.67;100.00;95591.38;5015507;28;20625;-58
2022/04/24 09:15:15;;;;;;;;;;;9.20;99.90;;;8.80;100.00;95597.63;5001610;28;20300;-58
2022/04/24 09:17:41;;;;;;;;;;;9.30;99.90;;;8.90;100.00;95593.53;5016822;28;19928;-58
2022/04/24 09:20:19;;;;;;;;;;;9.50;99.90;;;8.98;100.00;95596.53;5014729;28;19928;-58
2022/04/24 09:22:46;;;;;;;;;;;9.50;99.90;;;9.03;100.00;95601.53;5010124;28;19928;-58
2022/04/24 09:25:12;;;;;;;;;;;9.60;99.90;;;9.09;100.00;95608.19;5014948;28;19921;-57
2022/04/24 09:27:38;;;;;;;;;;;9.60;99.90;;;9.07;100.00;95599.56;4997687;28;20254;-58
2022/04/24 09:30:12;;;;;;;;;;;9.70;99.90;;;9.09;100.00;95605.56;5008753;28;20012;-58
2022/04/24 09:32:46;;;;;;;;;;;9.60;99.90;;;9.05;100.00;95607.53;5010708;28;19932;-57
2022/04/24 09:35:23;;;;;;;;;;;9.60;99.90;;;9.02;100.00;95610.34;5010942;28;19971;-57
2022/04/24 09:37:48;;;;;;;;;;;9.60;99.90;;;9.02;100.00;95612.97;5012453;28;20474;-58
2022/04/24 09:40:14;;;;;;;;;;;9.50;99.90;;;8.97;100.00;95608.00;5013706;28;19958;-59
2022/04/24 09:42:40;;;;;;;;;;;9.50;99.90;;;8.97;100.00;95610.63;5013732;28;20421;-61
2022/04/24 09:45:05;;;;;;;;;;;9.50;99.90;;;9.00;100.00;95612.22;4996728;28;19921;-61
2022/04/24 09:47:34;;;;;;;;;;;9.50;99.90;;;8.98;100.00;95614.94;5014644;28;19924;-61
2022/04/24 09:50:01;;;;;;;;;;;9.60;99.90;;;9.05;100.00;95609.31;5009936;28;20091;-62
2022/04/24 09:52:27;;;;;;;;;;;9.60;99.90;;;9.07;100.00;95613.53;4998922;28;19921;-64
2022/04/24 09:54:54;;;;;;;;;;;9.60;99.90;;;9.10;100.00;95617.78;4996915;28;20043;-63
2022/04/24 09:57:22;;;;;;;;;;;9.70;99.90;;;9.11;100.00;95617.66;5016321;28;19921;-63
2022/04/24 09:59:50;;;;;;;;;;;9.70;99.90;;;9.17;100.00;95627.00;5018521;28;19921;-62
2022/04/24 10:02:17;;;;;;;;;;;9.70;99.90;;;9.21;100.00;95628.50;5015580;28;19933;-62
2022/04/24 10:04:44;;;;;;;;;;;9.80;99.90;;;9.32;100.00;95630.50;5012594;28;19925;-62
2022/04/24 10:07:15;;;;;;;;;;;9.80;99.90;;;9.35;100.00;95628.53;5015822;28;19925;-63
2022/04/24 10:09:42;;;;;;;;;;;9.90;99.90;;;9.43;100.00;95627.22;5010468;28;19975;-62
2022/04/24 10:12:14;;;;;;;;;;;9.90;99.90;;;9.49;100.00;95642.63;5010055;28;19925;-62
2022/04/24 10:14:53;;;;;;;;;;;10.00;99.90;;;9.52;100.00;95638.00;5012106;28;19928;-63
2022/04/24 10:17:40;;;;;;;;;;;10.10;99.90;;;9.60;100.00;95640.19;5013227;28;19929;-62
2022/04/24 10:20:37;;;;;;;;;;;10.10;99.90;;;9.65;100.00;95642.53;5012627;28;20155;-63
2022/04/24 10:23:02;;;;;;;;;;;10.20;99.90;;;9.67;100.00;95640.66;5009501;28;19924;-62
2022/04/24 10:25:39;;;;;;;;;;;10.20;99.90;;;9.64;100.00;95649.59;5010535;28;19925;-62
2022/04/24 10:28:18;;;;;;;;;;;10.20;99.90;;;9.67;100.00;95646.78;5015576;28;19920;-63
2022/04/24 10:31:04;;;;;;;;;;;10.20;99.90;;;9.59;100.00;95648.19;5006964;28;19925;-62
2022/04/24 10:33:32;;;;;;;;;;;10.20;99.90;;;9.58;100.00;95655.22;4997015;28;19917;-62
2022/04/24 10:36:03;;;;;;;;;;;10.20;99.90;;;9.53;100.00;95644.97;5008009;28;19921;-61
2022/04/24 10:38:30;;;;;;;;;;;10.10;99.90;;;9.59;100.00;95650.81;5008356;28;19925;-64
2022/04/24 10:40:57;;;;;;;;;;;10.10;99.90;;;9.60;100.00;95650.72;5009251;28;20375;-64
2022/04/24 10:43:23;;;;;;;;;;;10.10;99.90;;;9.66;100.00;95657.41;5005746;28;20528;-63
2022/04/24 10:45:50;;;;;;;;;;;10.20;99.90;;;9.68;100.00;95655.50;5003957;28;20512;-64
2022/04/24 10:48:16;;;;;;;;;;;10.20;99.90;;;9.69;100.00;95657.19;5005829;28;19925;-61
2022/04/24 10:50:47;;;;;;;;;;;10.20;99.90;;;9.68;100.00;95658.97;5006153;28;19921;-63
2022/04/24 10:53:12;;;;;;;;;;;10.20;99.90;;;9.69;100.00;95657.19;5010670;28;19925;-61
2022/04/24 10:55:38;;;;;;;;;;;10.20;99.90;;;9.62;100.00;95656.75;4993668;28;19932;-61
2022/04/24 10:58:05;;;;;;;;;;;10.20;99.90;;;9.49;100.00;95642.63;5013952;28;19922;-61
2022/04/24 11:00:34;;;;;;;;;;;10.10;99.90;;;9.48;100.00;95651.47;5008832;28;19921;-61
2022/04/24 11:03:07;;;;;;;;;;;10.10;99.90;;;9.39;100.00;95660.75;5041881;22;20134;-58
2022/04/24 11:05:38;;;;;;;;;;;9.90;99.90;;;9.35;100.00;95662.72;5009966;28;19925;-58
2022/04/24 11:08:06;;;;;;;;;;;9.90;99.90;;;9.29;100.00;95670.13;5028285;28;20407;-60
2022/04/24 11:10:42;;;;;;;;;;;9.90;99.90;;;9.29;100.00;95670.97;5012283;28;19924;-58
2022/04/24 11:13:09;;;;;;;;;;;9.90;99.90;;;9.38;100.00;95664.31;5011614;28;19925;-58
2022/04/24 11:15:39;;;;;;;;;;;9.90;99.90;;;9.48;100.00;95665.47;5030536;28;19924;-58
2022/04/24 11:18:05;;;;;;;;;;;10.00;99.90;;;9.58;100.00;95663.09;5031595;28;19925;-58
2022/04/24 11:20:33;;;;;;;;;;;10.10;99.90;;;9.62;100.00;95669.03;5031711;28;19921;-58
2022/04/24 11:22:58;;;;;;;;;;;10.20;99.90;;;9.78;100.00;95679.47;5028377;28;19932;-58